sensor_id;sensor_type;location;lat;lon;timestamp;P1;durP1;ratioP1;P2;durP2;ratioP2
37273;SDS011;23161;51.250;5.554;2024-03-25T00:00:47;18.92;;;8.60;;
37273;SDS011;23161;51.250;5.554;2024-03-25T00:02:18;18.25;;;6.88;;
37273;SDS011;23161;51.250;5.554;2024-03-25T00:03:49;19.10;;;8.00;;
37273;SDS011;23161;51.250;5.554;2024-03-25T00:05:21;8.95;;;5.45;;
37273;SDS011;23161;51.250;5.554;2024-03-25T00:06:52;10.48;;;5.43;;
37273;SDS011;23161;51.250;5.554;2024-03-25T00:08:23;22.13;;;8.07;;
37273;SDS011;23161;51.250;5.554;2024-03-25T00:09:55;21.00;;;6.35;;
37273;SDS011;23161;51.250;5.554;2024-03-25T00:11:26;15.80;;;7.88;;
37273;SDS011;23161;51.250;5.554;2024-03-25T00:12:58;33.45;;;9.82;;
37273;SDS011;23161;51.250;5.554;2024-03-25T00:14:29;18.02;;;8.80;;
37273;SDS011;23161;51.250;5.554;2024-03-25T00:16:00;10.18;;;7.18;;
37273;SDS011;23161;51.250;5.554;2024-03-25T00:17:31;24.77;;;7.90;;
37273;SDS011;23161;51.250;5.554;2024-03-25T00:19:02;22.40;;;6.75;;
37273;SDS011;23161;51.250;5.554;2024-03-25T00:20:33;25.90;;;8.60;;
37273;SDS011;23161;51.250;5.554;2024-03-25T00:22:05;11.18;;;7.97;;
37273;SDS011;23161;51.250;5.554;2024-03-25T00:23:36;15.10;;;7.63;;
37273;SDS011;23161;51.250;5.554;2024-03-25T00:25:07;24.02;;;8.60;;
37273;SDS011;23161;51.250;5.554;2024-03-25T00:26:39;20.35;;;8.00;;
37273;SDS011;23161;51.250;5.554;2024-03-25T00:28:10;17.10;;;7.88;;
37273;SDS011;23161;51.250;5.554;2024-03-25T00:29:41;17.40;;;9.65;;
37273;SDS011;23161;51.250;5.554;2024-03-25T00:31:12;11.95;;;8.63;;
37273;SDS011;23161;51.250;5.554;2024-03-25T00:32:43;19.15;;;8.57;;
37273;SDS011;23161;51.250;5.554;2024-03-25T00:34:15;17.17;;;7.10;;
37273;SDS011;23161;51.250;5.554;2024-03-25T00:35:46;23.50;;;7.90;;
37273;SDS011;23161;51.250;5.554;2024-03-25T00:37:17;12.30;;;6.90;;
37273;SDS011;23161;51.250;5.554;2024-03-25T00:38:49;10.27;;;7.35;;
37273;SDS011;23161;51.250;5.554;2024-03-25T00:40:20;24.02;;;9.57;;
37273;SDS011;23161;51.250;5.554;2024-03-25T00:41:51;15.00;;;8.93;;
37273;SDS011;23161;51.250;5.554;2024-03-25T00:43:23;23.98;;;10.18;;
37273;SDS011;23161;51.250;5.554;2024-03-25T00:44:54;19.58;;;8.75;;
37273;SDS011;23161;51.250;5.554;2024-03-25T00:46:26;12.38;;;6.22;;
37273;SDS011;23161;51.250;5.554;2024-03-25T00:47:57;13.48;;;8.07;;
37273;SDS011;23161;51.250;5.554;2024-03-25T00:49:29;15.25;;;8.38;;
37273;SDS011;23161;51.250;5.554;2024-03-25T00:51:00;13.40;;;8.68;;
37273;SDS011;23161;51.250;5.554;2024-03-25T00:52:31;12.32;;;8.85;;
37273;SDS011;23161;51.250;5.554;2024-03-25T00:54:03;16.80;;;9.25;;
37273;SDS011;23161;51.250;5.554;2024-03-25T00:55:34;19.42;;;7.88;;
37273;SDS011;23161;51.250;5.554;2024-03-25T00:57:05;13.93;;;9.35;;
37273;SDS011;23161;51.250;5.554;2024-03-25T00:58:36;17.20;;;7.00;;
37273;SDS011;23161;51.250;5.554;2024-03-25T01:00:07;14.07;;;8.23;;
37273;SDS011;23161;51.250;5.554;2024-03-25T01:01:39;29.38;;;10.55;;
37273;SDS011;23161;51.250;5.554;2024-03-25T01:03:10;22.10;;;9.88;;
37273;SDS011;23161;51.250;5.554;2024-03-25T01:04:41;10.55;;;7.90;;
37273;SDS011;23161;51.250;5.554;2024-03-25T01:06:13;14.45;;;8.63;;
37273;SDS011;23161;51.250;5.554;2024-03-25T01:07:44;15.93;;;9.77;;
37273;SDS011;23161;51.250;5.554;2024-03-25T01:09:15;23.42;;;9.15;;
37273;SDS011;23161;51.250;5.554;2024-03-25T01:10:47;16.05;;;8.60;;
37273;SDS011;23161;51.250;5.554;2024-03-25T01:12:18;18.70;;;8.90;;
37273;SDS011;23161;51.250;5.554;2024-03-25T01:13:49;27.50;;;10.27;;
37273;SDS011;23161;51.250;5.554;2024-03-25T01:15:21;20.08;;;9.68;;
37273;SDS011;23161;51.250;5.554;2024-03-25T01:16:52;18.60;;;9.50;;
37273;SDS011;23161;51.250;5.554;2024-03-25T01:18:23;19.05;;;9.10;;
37273;SDS011;23161;51.250;5.554;2024-03-25T01:19:54;19.05;;;8.20;;
37273;SDS011;23161;51.250;5.554;2024-03-25T01:21:27;18.40;;;11.55;;
37273;SDS011;23161;51.250;5.554;2024-03-25T01:22:58;6.93;;;6.28;;
37273;SDS011;23161;51.250;5.554;2024-03-25T01:24:30;15.60;;;8.93;;
37273;SDS011;23161;51.250;5.554;2024-03-25T01:26:01;10.65;;;9.75;;
37273;SDS011;23161;51.250;5.554;2024-03-25T01:27:32;15.25;;;7.53;;
37273;SDS011;23161;51.250;5.554;2024-03-25T01:29:03;14.98;;;10.65;;
37273;SDS011;23161;51.250;5.554;2024-03-25T01:30:34;26.13;;;10.35;;
37273;SDS011;23161;51.250;5.554;2024-03-25T01:32:05;11.55;;;8.57;;
37273;SDS011;23161;51.250;5.554;2024-03-25T01:33:37;19.17;;;10.23;;
37273;SDS011;23161;51.250;5.554;2024-03-25T01:35:08;10.57;;;9.27;;
37273;SDS011;23161;51.250;5.554;2024-03-25T01:36:39;17.83;;;10.05;;
37273;SDS011;23161;51.250;5.554;2024-03-25T01:38:10;20.67;;;9.38;;
37273;SDS011;23161;51.250;5.554;2024-03-25T01:39:42;15.32;;;8.48;;
37273;SDS011;23161;51.250;5.554;2024-03-25T01:41:13;27.25;;;8.57;;
37273;SDS011;23161;51.250;5.554;2024-03-25T01:43:20;15.13;;;8.00;;
37273;SDS011;23161;51.250;5.554;2024-03-25T01:44:44;17.35;;;8.45;;
37273;SDS011;23161;51.250;5.554;2024-03-25T01:46:17;14.70;;;9.20;;
37273;SDS011;23161;51.250;5.554;2024-03-25T01:47:49;15.05;;;8.90;;
37273;SDS011;23161;51.250;5.554;2024-03-25T01:49:20;28.27;;;9.35;;
37273;SDS011;23161;51.250;5.554;2024-03-25T01:50:51;28.30;;;9.05;;
37273;SDS011;23161;51.250;5.554;2024-03-25T01:52:24;21.77;;;11.02;;
37273;SDS011;23161;51.250;5.554;2024-03-25T01:53:56;18.17;;;9.50;;
37273;SDS011;23161;51.250;5.554;2024-03-25T01:55:28;27.98;;;9.20;;
37273;SDS011;23161;51.250;5.554;2024-03-25T01:57:00;20.45;;;11.05;;
37273;SDS011;23161;51.250;5.554;2024-03-25T01:58:32;19.98;;;8.10;;
37273;SDS011;23161;51.250;5.554;2024-03-25T02:00:03;17.70;;;9.38;;
37273;SDS011;23161;51.250;5.554;2024-03-25T02:01:39;20.48;;;10.88;;
37273;SDS011;23161;51.250;5.554;2024-03-25T02:03:10;13.93;;;8.65;;
37273;SDS011;23161;51.250;5.554;2024-03-25T02:04:41;14.38;;;9.63;;
37273;SDS011;23161;51.250;5.554;2024-03-25T02:06:14;17.63;;;11.35;;
37273;SDS011;23161;51.250;5.554;2024-03-25T02:07:46;20.08;;;9.60;;
37273;SDS011;23161;51.250;5.554;2024-03-25T02:09:17;17.63;;;8.95;;
37273;SDS011;23161;51.250;5.554;2024-03-25T02:10:49;20.30;;;9.27;;
37273;SDS011;23161;51.250;5.554;2024-03-25T02:12:20;12.18;;;9.93;;
37273;SDS011;23161;51.250;5.554;2024-03-25T02:13:52;12.75;;;8.60;;
37273;SDS011;23161;51.250;5.554;2024-03-25T02:15:23;35.60;;;12.18;;
37273;SDS011;23161;51.250;5.554;2024-03-25T02:16:56;12.07;;;9.15;;
37273;SDS011;23161;51.250;5.554;2024-03-25T02:18:27;21.25;;;12.07;;
37273;SDS011;23161;51.250;5.554;2024-03-25T02:19:58;22.55;;;8.65;;
37273;SDS011;23161;51.250;5.554;2024-03-25T02:21:29;17.45;;;10.27;;
37273;SDS011;23161;51.250;5.554;2024-03-25T02:23:01;13.05;;;10.77;;
37273;SDS011;23161;51.250;5.554;2024-03-25T02:24:32;19.73;;;8.95;;
37273;SDS011;23161;51.250;5.554;2024-03-25T02:26:04;17.70;;;9.98;;
37273;SDS011;23161;51.250;5.554;2024-03-25T02:27:35;23.55;;;10.73;;
37273;SDS011;23161;51.250;5.554;2024-03-25T02:29:10;20.20;;;9.95;;
37273;SDS011;23161;51.250;5.554;2024-03-25T02:30:41;18.98;;;10.65;;
37273;SDS011;23161;51.250;5.554;2024-03-25T02:32:13;16.70;;;8.93;;
37273;SDS011;23161;51.250;5.554;2024-03-25T02:33:44;14.30;;;9.55;;
37273;SDS011;23161;51.250;5.554;2024-03-25T02:35:15;25.38;;;10.48;;
37273;SDS011;23161;51.250;5.554;2024-03-25T02:36:49;22.10;;;11.40;;
37273;SDS011;23161;51.250;5.554;2024-03-25T02:38:21;19.75;;;11.15;;
37273;SDS011;23161;51.250;5.554;2024-03-25T02:39:55;17.83;;;9.35;;
37273;SDS011;23161;51.250;5.554;2024-03-25T02:41:28;21.48;;;10.98;;
37273;SDS011;23161;51.250;5.554;2024-03-25T02:43:01;22.38;;;10.98;;
37273;SDS011;23161;51.250;5.554;2024-03-25T02:44:32;20.52;;;11.15;;
37273;SDS011;23161;51.250;5.554;2024-03-25T02:46:04;21.10;;;9.85;;
37273;SDS011;23161;51.250;5.554;2024-03-25T02:47:35;12.95;;;10.68;;
37273;SDS011;23161;51.250;5.554;2024-03-25T02:49:06;27.70;;;10.77;;
37273;SDS011;23161;51.250;5.554;2024-03-25T02:50:37;18.63;;;11.20;;
37273;SDS011;23161;51.250;5.554;2024-03-25T02:52:08;16.58;;;10.02;;
37273;SDS011;23161;51.250;5.554;2024-03-25T02:53:39;18.13;;;11.43;;
37273;SDS011;23161;51.250;5.554;2024-03-25T02:55:10;20.35;;;10.63;;
37273;SDS011;23161;51.250;5.554;2024-03-25T02:56:42;32.88;;;10.95;;
37273;SDS011;23161;51.250;5.554;2024-03-25T02:58:13;17.90;;;11.25;;
37273;SDS011;23161;51.250;5.554;2024-03-25T02:59:45;16.80;;;12.00;;
37273;SDS011;23161;51.250;5.554;2024-03-25T03:01:16;17.08;;;10.95;;
37273;SDS011;23161;51.250;5.554;2024-03-25T03:02:47;19.13;;;10.40;;
37273;SDS011;23161;51.250;5.554;2024-03-25T03:04:18;21.55;;;9.65;;
37273;SDS011;23161;51.250;5.554;2024-03-25T03:05:49;19.20;;;8.98;;
37273;SDS011;23161;51.250;5.554;2024-03-25T03:07:21;24.63;;;11.48;;
37273;SDS011;23161;51.250;5.554;2024-03-25T03:08:52;21.33;;;12.35;;
37273;SDS011;23161;51.250;5.554;2024-03-25T03:10:23;22.73;;;11.45;;
37273;SDS011;23161;51.250;5.554;2024-03-25T03:11:56;10.35;;;8.55;;
37273;SDS011;23161;51.250;5.554;2024-03-25T03:13:27;21.27;;;10.98;;
37273;SDS011;23161;51.250;5.554;2024-03-25T03:14:58;14.52;;;10.35;;
37273;SDS011;23161;51.250;5.554;2024-03-25T03:16:30;17.73;;;9.10;;
37273;SDS011;23161;51.250;5.554;2024-03-25T03:18:01;14.25;;;9.38;;
37273;SDS011;23161;51.250;5.554;2024-03-25T03:19:32;18.25;;;10.07;;
37273;SDS011;23161;51.250;5.554;2024-03-25T03:21:06;23.33;;;9.90;;
37273;SDS011;23161;51.250;5.554;2024-03-25T03:22:37;12.95;;;9.98;;
37273;SDS011;23161;51.250;5.554;2024-03-25T03:24:08;17.08;;;10.40;;
37273;SDS011;23161;51.250;5.554;2024-03-25T03:25:40;12.98;;;9.57;;
37273;SDS011;23161;51.250;5.554;2024-03-25T03:27:11;15.23;;;11.23;;
37273;SDS011;23161;51.250;5.554;2024-03-25T03:28:43;13.32;;;10.38;;
37273;SDS011;23161;51.250;5.554;2024-03-25T03:30:14;11.45;;;10.35;;
37273;SDS011;23161;51.250;5.554;2024-03-25T03:31:45;21.27;;;10.60;;
37273;SDS011;23161;51.250;5.554;2024-03-25T03:33:16;21.50;;;14.23;;
37273;SDS011;23161;51.250;5.554;2024-03-25T03:34:47;29.95;;;13.25;;
37273;SDS011;23161;51.250;5.554;2024-03-25T03:36:19;14.00;;;10.00;;
37273;SDS011;23161;51.250;5.554;2024-03-25T03:37:50;17.58;;;9.88;;
37273;SDS011;23161;51.250;5.554;2024-03-25T03:39:22;15.52;;;11.57;;
37273;SDS011;23161;51.250;5.554;2024-03-25T03:41:00;19.17;;;10.52;;
37273;SDS011;23161;51.250;5.554;2024-03-25T03:42:31;22.98;;;10.60;;
37273;SDS011;23161;51.250;5.554;2024-03-25T03:44:02;13.80;;;9.93;;
37273;SDS011;23161;51.250;5.554;2024-03-25T03:45:34;11.98;;;9.95;;
37273;SDS011;23161;51.250;5.554;2024-03-25T03:47:06;17.42;;;10.48;;
37273;SDS011;23161;51.250;5.554;2024-03-25T03:48:37;14.73;;;10.77;;
37273;SDS011;23161;51.250;5.554;2024-03-25T03:50:09;22.67;;;11.05;;
37273;SDS011;23161;51.250;5.554;2024-03-25T03:51:40;21.80;;;12.98;;
37273;SDS011;23161;51.250;5.554;2024-03-25T03:53:11;31.00;;;13.82;;
37273;SDS011;23161;51.250;5.554;2024-03-25T03:54:43;24.20;;;14.95;;
37273;SDS011;23161;51.250;5.554;2024-03-25T03:56:14;23.58;;;13.43;;
37273;SDS011;23161;51.250;5.554;2024-03-25T03:57:46;32.78;;;13.98;;
37273;SDS011;23161;51.250;5.554;2024-03-25T03:59:17;23.80;;;14.65;;
37273;SDS011;23161;51.250;5.554;2024-03-25T04:00:48;18.65;;;12.88;;
37273;SDS011;23161;51.250;5.554;2024-03-25T04:02:20;21.63;;;13.43;;
37273;SDS011;23161;51.250;5.554;2024-03-25T04:03:51;24.00;;;13.10;;
37273;SDS011;23161;51.250;5.554;2024-03-25T04:05:22;19.20;;;13.95;;
37273;SDS011;23161;51.250;5.554;2024-03-25T04:06:53;15.63;;;13.57;;
37273;SDS011;23161;51.250;5.554;2024-03-25T04:08:25;16.70;;;12.23;;
37273;SDS011;23161;51.250;5.554;2024-03-25T04:09:59;17.35;;;13.80;;
37273;SDS011;23161;51.250;5.554;2024-03-25T04:11:30;22.52;;;13.68;;
37273;SDS011;23161;51.250;5.554;2024-03-25T04:13:03;35.88;;;13.90;;
37273;SDS011;23161;51.250;5.554;2024-03-25T04:14:34;16.23;;;13.00;;
37273;SDS011;23161;51.250;5.554;2024-03-25T04:16:05;14.88;;;13.00;;
37273;SDS011;23161;51.250;5.554;2024-03-25T04:17:37;15.57;;;11.88;;
37273;SDS011;23161;51.250;5.554;2024-03-25T04:19:08;21.25;;;12.32;;
37273;SDS011;23161;51.250;5.554;2024-03-25T04:20:40;18.42;;;11.15;;
37273;SDS011;23161;51.250;5.554;2024-03-25T04:22:11;14.38;;;11.30;;
37273;SDS011;23161;51.250;5.554;2024-03-25T04:23:42;17.00;;;11.05;;
37273;SDS011;23161;51.250;5.554;2024-03-25T04:25:15;23.88;;;12.75;;
37273;SDS011;23161;51.250;5.554;2024-03-25T04:26:46;15.27;;;11.82;;
37273;SDS011;23161;51.250;5.554;2024-03-25T04:28:19;11.85;;;10.10;;
37273;SDS011;23161;51.250;5.554;2024-03-25T04:29:50;14.23;;;11.35;;
37273;SDS011;23161;51.250;5.554;2024-03-25T04:31:21;21.67;;;13.55;;
37273;SDS011;23161;51.250;5.554;2024-03-25T04:32:53;19.02;;;12.13;;
37273;SDS011;23161;51.250;5.554;2024-03-25T04:34:24;16.05;;;12.02;;
37273;SDS011;23161;51.250;5.554;2024-03-25T04:35:55;18.58;;;11.70;;
37273;SDS011;23161;51.250;5.554;2024-03-25T04:37:26;18.80;;;12.25;;
37273;SDS011;23161;51.250;5.554;2024-03-25T04:39:00;30.52;;;13.75;;
37273;SDS011;23161;51.250;5.554;2024-03-25T04:40:32;18.42;;;12.07;;
37273;SDS011;23161;51.250;5.554;2024-03-25T04:42:03;17.80;;;12.50;;
37273;SDS011;23161;51.250;5.554;2024-03-25T04:43:34;19.60;;;12.80;;
37273;SDS011;23161;51.250;5.554;2024-03-25T04:45:05;14.68;;;9.80;;
37273;SDS011;23161;51.250;5.554;2024-03-25T04:46:37;13.77;;;12.10;;
37273;SDS011;23161;51.250;5.554;2024-03-25T04:48:08;13.98;;;11.88;;
37273;SDS011;23161;51.250;5.554;2024-03-25T04:49:40;22.85;;;12.40;;
37273;SDS011;23161;51.250;5.554;2024-03-25T04:51:11;18.73;;;12.95;;
37273;SDS011;23161;51.250;5.554;2024-03-25T04:52:42;20.95;;;13.35;;
37273;SDS011;23161;51.250;5.554;2024-03-25T04:54:13;18.83;;;11.40;;
37273;SDS011;23161;51.250;5.554;2024-03-25T04:55:44;17.80;;;12.57;;
37273;SDS011;23161;51.250;5.554;2024-03-25T04:57:15;18.60;;;12.38;;
37273;SDS011;23161;51.250;5.554;2024-03-25T04:58:47;21.92;;;13.32;;
37273;SDS011;23161;51.250;5.554;2024-03-25T05:00:18;16.40;;;11.38;;
37273;SDS011;23161;51.250;5.554;2024-03-25T05:01:49;16.58;;;12.90;;
37273;SDS011;23161;51.250;5.554;2024-03-25T05:03:20;20.45;;;13.05;;
37273;SDS011;23161;51.250;5.554;2024-03-25T05:04:51;19.75;;;12.73;;
37273;SDS011;23161;51.250;5.554;2024-03-25T05:06:22;23.33;;;12.57;;
37273;SDS011;23161;51.250;5.554;2024-03-25T05:07:54;20.42;;;13.48;;
37273;SDS011;23161;51.250;5.554;2024-03-25T05:09:25;16.05;;;12.95;;
37273;SDS011;23161;51.250;5.554;2024-03-25T05:10:57;16.20;;;11.43;;
37273;SDS011;23161;51.250;5.554;2024-03-25T05:12:28;19.35;;;12.20;;
37273;SDS011;23161;51.250;5.554;2024-03-25T05:14:00;14.68;;;13.15;;
37273;SDS011;23161;51.250;5.554;2024-03-25T05:15:31;21.65;;;13.27;;
37273;SDS011;23161;51.250;5.554;2024-03-25T05:17:02;15.27;;;12.27;;
37273;SDS011;23161;51.250;5.554;2024-03-25T05:18:35;17.13;;;13.48;;
37273;SDS011;23161;51.250;5.554;2024-03-25T05:20:07;15.73;;;11.13;;
37273;SDS011;23161;51.250;5.554;2024-03-25T05:21:38;18.05;;;13.48;;
37273;SDS011;23161;51.250;5.554;2024-03-25T05:23:09;25.08;;;16.25;;
37273;SDS011;23161;51.250;5.554;2024-03-25T05:24:40;19.30;;;14.10;;
37273;SDS011;23161;51.250;5.554;2024-03-25T05:26:11;19.25;;;14.55;;
37273;SDS011;23161;51.250;5.554;2024-03-25T05:27:42;18.02;;;14.23;;
37273;SDS011;23161;51.250;5.554;2024-03-25T05:29:13;35.58;;;16.10;;
37273;SDS011;23161;51.250;5.554;2024-03-25T05:30:44;25.15;;;15.90;;
37273;SDS011;23161;51.250;5.554;2024-03-25T05:32:16;20.45;;;14.35;;
37273;SDS011;23161;51.250;5.554;2024-03-25T05:33:47;15.60;;;13.00;;
37273;SDS011;23161;51.250;5.554;2024-03-25T05:35:19;21.15;;;14.40;;
37273;SDS011;23161;51.250;5.554;2024-03-25T05:36:51;12.93;;;11.27;;
37273;SDS011;23161;51.250;5.554;2024-03-25T05:38:23;13.32;;;10.60;;
37273;SDS011;23161;51.250;5.554;2024-03-25T05:39:54;19.73;;;13.45;;
37273;SDS011;23161;51.250;5.554;2024-03-25T05:41:25;16.63;;;12.95;;
37273;SDS011;23161;51.250;5.554;2024-03-25T05:42:56;12.80;;;10.15;;
37273;SDS011;23161;51.250;5.554;2024-03-25T05:44:27;19.50;;;12.55;;
37273;SDS011;23161;51.250;5.554;2024-03-25T05:45:58;16.30;;;13.15;;
37273;SDS011;23161;51.250;5.554;2024-03-25T05:47:30;16.42;;;12.48;;
37273;SDS011;23161;51.250;5.554;2024-03-25T05:49:05;20.95;;;11.90;;
37273;SDS011;23161;51.250;5.554;2024-03-25T05:50:36;14.32;;;11.98;;
37273;SDS011;23161;51.250;5.554;2024-03-25T05:52:08;14.38;;;12.65;;
37273;SDS011;23161;51.250;5.554;2024-03-25T05:53:39;14.10;;;12.60;;
37273;SDS011;23161;51.250;5.554;2024-03-25T05:55:10;18.38;;;13.68;;
37273;SDS011;23161;51.250;5.554;2024-03-25T05:56:41;17.75;;;12.07;;
37273;SDS011;23161;51.250;5.554;2024-03-25T05:58:12;24.85;;;13.68;;
37273;SDS011;23161;51.250;5.554;2024-03-25T05:59:45;15.88;;;12.70;;
37273;SDS011;23161;51.250;5.554;2024-03-25T06:01:16;14.07;;;12.27;;
37273;SDS011;23161;51.250;5.554;2024-03-25T06:02:47;20.45;;;14.38;;
37273;SDS011;23161;51.250;5.554;2024-03-25T06:04:18;19.38;;;14.35;;
37273;SDS011;23161;51.250;5.554;2024-03-25T06:05:50;14.55;;;13.02;;
37273;SDS011;23161;51.250;5.554;2024-03-25T06:07:21;15.30;;;13.18;;
37273;SDS011;23161;51.250;5.554;2024-03-25T06:08:52;14.07;;;12.73;;
37273;SDS011;23161;51.250;5.554;2024-03-25T06:10:23;20.23;;;13.48;;
37273;SDS011;23161;51.250;5.554;2024-03-25T06:11:55;31.35;;;14.55;;
37273;SDS011;23161;51.250;5.554;2024-03-25T06:13:26;20.83;;;13.68;;
37273;SDS011;23161;51.250;5.554;2024-03-25T06:14:57;20.65;;;13.95;;
37273;SDS011;23161;51.250;5.554;2024-03-25T06:16:28;21.08;;;15.90;;
37273;SDS011;23161;51.250;5.554;2024-03-25T06:18:00;22.55;;;15.63;;
37273;SDS011;23161;51.250;5.554;2024-03-25T06:19:31;18.42;;;15.10;;
37273;SDS011;23161;51.250;5.554;2024-03-25T06:21:02;21.77;;;15.00;;
37273;SDS011;23161;51.250;5.554;2024-03-25T06:22:33;18.63;;;14.40;;
37273;SDS011;23161;51.250;5.554;2024-03-25T06:24:05;22.30;;;16.58;;
37273;SDS011;23161;51.250;5.554;2024-03-25T06:25:36;15.52;;;13.90;;
37273;SDS011;23161;51.250;5.554;2024-03-25T06:27:08;18.60;;;15.88;;
37273;SDS011;23161;51.250;5.554;2024-03-25T06:28:39;15.95;;;12.98;;
37273;SDS011;23161;51.250;5.554;2024-03-25T06:30:10;19.52;;;15.13;;
37273;SDS011;23161;51.250;5.554;2024-03-25T06:32:01;20.38;;;13.93;;
37273;SDS011;23161;51.250;5.554;2024-03-25T06:33:51;19.63;;;16.25;;
37273;SDS011;23161;51.250;5.554;2024-03-25T06:35:43;19.90;;;15.32;;
37273;SDS011;23161;51.250;5.554;2024-03-25T06:37:15;16.05;;;14.38;;
37273;SDS011;23161;51.250;5.554;2024-03-25T06:38:46;25.63;;;13.75;;
37273;SDS011;23161;51.250;5.554;2024-03-25T06:40:17;15.85;;;14.23;;
37273;SDS011;23161;51.250;5.554;2024-03-25T06:41:48;26.02;;;17.15;;
37273;SDS011;23161;51.250;5.554;2024-03-25T06:43:19;24.00;;;18.33;;
37273;SDS011;23161;51.250;5.554;2024-03-25T06:44:51;15.40;;;13.80;;
37273;SDS011;23161;51.250;5.554;2024-03-25T06:46:22;26.15;;;15.93;;
37273;SDS011;23161;51.250;5.554;2024-03-25T06:47:53;23.20;;;17.02;;
37273;SDS011;23161;51.250;5.554;2024-03-25T06:49:24;23.63;;;18.45;;
37273;SDS011;23161;51.250;5.554;2024-03-25T06:50:55;21.55;;;17.98;;
37273;SDS011;23161;51.250;5.554;2024-03-25T06:52:28;29.80;;;18.52;;
37273;SDS011;23161;51.250;5.554;2024-03-25T06:53:59;26.48;;;19.73;;
37273;SDS011;23161;51.250;5.554;2024-03-25T06:55:30;27.02;;;19.50;;
37273;SDS011;23161;51.250;5.554;2024-03-25T06:57:01;23.35;;;18.75;;
37273;SDS011;23161;51.250;5.554;2024-03-25T06:58:34;33.60;;;21.52;;
37273;SDS011;23161;51.250;5.554;2024-03-25T07:00:05;22.98;;;17.98;;
37273;SDS011;23161;51.250;5.554;2024-03-25T07:01:40;31.80;;;23.30;;
37273;SDS011;23161;51.250;5.554;2024-03-25T07:03:11;32.92;;;21.63;;
37273;SDS011;23161;51.250;5.554;2024-03-25T07:04:42;26.98;;;20.73;;
37273;SDS011;23161;51.250;5.554;2024-03-25T07:06:14;31.67;;;19.48;;
37273;SDS011;23161;51.250;5.554;2024-03-25T07:07:45;34.30;;;20.35;;
37273;SDS011;23161;51.250;5.554;2024-03-25T07:09:16;29.45;;;18.70;;
37273;SDS011;23161;51.250;5.554;2024-03-25T07:10:47;40.53;;;19.55;;
37273;SDS011;23161;51.250;5.554;2024-03-25T07:12:18;32.13;;;19.05;;
37273;SDS011;23161;51.250;5.554;2024-03-25T07:13:50;29.33;;;21.10;;
37273;SDS011;23161;51.250;5.554;2024-03-25T07:15:21;27.45;;;20.05;;
37273;SDS011;23161;51.250;5.554;2024-03-25T07:16:53;29.65;;;19.45;;
37273;SDS011;23161;51.250;5.554;2024-03-25T07:18:24;31.17;;;15.73;;
37273;SDS011;23161;51.250;5.554;2024-03-25T07:19:55;18.60;;;16.25;;
37273;SDS011;23161;51.250;5.554;2024-03-25T07:21:26;32.20;;;15.23;;
37273;SDS011;23161;51.250;5.554;2024-03-25T07:22:57;37.58;;;20.00;;
37273;SDS011;23161;51.250;5.554;2024-03-25T07:24:29;24.83;;;18.33;;
37273;SDS011;23161;51.250;5.554;2024-03-25T07:26:00;21.50;;;17.25;;
37273;SDS011;23161;51.250;5.554;2024-03-25T07:27:31;28.73;;;16.58;;
37273;SDS011;23161;51.250;5.554;2024-03-25T07:29:02;23.38;;;14.38;;
37273;SDS011;23161;51.250;5.554;2024-03-25T07:30:33;29.23;;;15.70;;
37273;SDS011;23161;51.250;5.554;2024-03-25T07:32:05;25.40;;;13.98;;
37273;SDS011;23161;51.250;5.554;2024-03-25T07:33:36;17.73;;;13.73;;
37273;SDS011;23161;51.250;5.554;2024-03-25T07:35:07;21.75;;;14.05;;
37273;SDS011;23161;51.250;5.554;2024-03-25T07:36:39;17.85;;;12.07;;
37273;SDS011;23161;51.250;5.554;2024-03-25T07:38:11;20.58;;;10.90;;
37273;SDS011;23161;51.250;5.554;2024-03-25T07:39:42;17.67;;;12.88;;
37273;SDS011;23161;51.250;5.554;2024-03-25T07:41:14;14.07;;;10.75;;
37273;SDS011;23161;51.250;5.554;2024-03-25T07:42:45;19.60;;;12.27;;
37273;SDS011;23161;51.250;5.554;2024-03-25T07:44:16;21.75;;;12.23;;
37273;SDS011;23161;51.250;5.554;2024-03-25T07:45:47;18.42;;;12.55;;
37273;SDS011;23161;51.250;5.554;2024-03-25T07:47:18;15.32;;;12.85;;
37273;SDS011;23161;51.250;5.554;2024-03-25T07:48:50;17.90;;;10.93;;
37273;SDS011;23161;51.250;5.554;2024-03-25T07:50:22;18.95;;;12.90;;
37273;SDS011;23161;51.250;5.554;2024-03-25T07:51:53;20.05;;;12.32;;
37273;SDS011;23161;51.250;5.554;2024-03-25T07:53:24;14.27;;;11.73;;
37273;SDS011;23161;51.250;5.554;2024-03-25T07:54:55;17.80;;;12.50;;
37273;SDS011;23161;51.250;5.554;2024-03-25T07:56:27;24.02;;;14.70;;
37273;SDS011;23161;51.250;5.554;2024-03-25T07:58:00;24.05;;;12.90;;
37273;SDS011;23161;51.250;5.554;2024-03-25T07:59:31;20.13;;;13.63;;
37273;SDS011;23161;51.250;5.554;2024-03-25T08:01:03;20.98;;;13.25;;
37273;SDS011;23161;51.250;5.554;2024-03-25T08:02:34;25.95;;;13.52;;
37273;SDS011;23161;51.250;5.554;2024-03-25T08:04:05;16.25;;;12.38;;
37273;SDS011;23161;51.250;5.554;2024-03-25T08:05:39;25.65;;;14.73;;
37273;SDS011;23161;51.250;5.554;2024-03-25T08:07:10;31.67;;;14.30;;
37273;SDS011;23161;51.250;5.554;2024-03-25T08:08:41;22.55;;;12.35;;
37273;SDS011;23161;51.250;5.554;2024-03-25T08:10:13;27.15;;;13.20;;
37273;SDS011;23161;51.250;5.554;2024-03-25T08:11:44;37.22;;;12.98;;
37273;SDS011;23161;51.250;5.554;2024-03-25T08:13:15;20.10;;;13.23;;
37273;SDS011;23161;51.250;5.554;2024-03-25T08:14:46;14.25;;;11.82;;
37273;SDS011;23161;51.250;5.554;2024-03-25T08:16:17;15.95;;;10.93;;
37273;SDS011;23161;51.250;5.554;2024-03-25T08:17:50;22.63;;;13.75;;
37273;SDS011;23161;51.250;5.554;2024-03-25T08:19:21;24.80;;;14.15;;
37273;SDS011;23161;51.250;5.554;2024-03-25T08:20:52;14.93;;;9.57;;
37273;SDS011;23161;51.250;5.554;2024-03-25T08:22:23;12.85;;;10.90;;
37273;SDS011;23161;51.250;5.554;2024-03-25T08:23:54;15.25;;;11.50;;
37273;SDS011;23161;51.250;5.554;2024-03-25T08:25:25;23.20;;;10.38;;
37273;SDS011;23161;51.250;5.554;2024-03-25T08:26:56;14.98;;;9.13;;
37273;SDS011;23161;51.250;5.554;2024-03-25T08:28:28;13.48;;;10.35;;
37273;SDS011;23161;51.250;5.554;2024-03-25T08:29:59;19.73;;;12.38;;
37273;SDS011;23161;51.250;5.554;2024-03-25T08:31:30;22.67;;;9.65;;
37273;SDS011;23161;51.250;5.554;2024-03-25T08:33:01;14.32;;;8.38;;
37273;SDS011;23161;51.250;5.554;2024-03-25T08:34:33;14.00;;;9.32;;
37273;SDS011;23161;51.250;5.554;2024-03-25T08:36:04;15.05;;;9.30;;
37273;SDS011;23161;51.250;5.554;2024-03-25T08:37:35;14.55;;;10.88;;
37273;SDS011;23161;51.250;5.554;2024-03-25T08:39:06;16.30;;;9.80;;
37273;SDS011;23161;51.250;5.554;2024-03-25T08:40:37;13.93;;;10.07;;
37273;SDS011;23161;51.250;5.554;2024-03-25T08:42:10;10.95;;;8.98;;
37273;SDS011;23161;51.250;5.554;2024-03-25T08:43:41;21.13;;;9.35;;
37273;SDS011;23161;51.250;5.554;2024-03-25T08:45:12;11.05;;;7.93;;
37273;SDS011;23161;51.250;5.554;2024-03-25T08:46:44;13.43;;;10.20;;
37273;SDS011;23161;51.250;5.554;2024-03-25T08:48:16;12.25;;;8.63;;
37273;SDS011;23161;51.250;5.554;2024-03-25T08:49:47;14.38;;;10.43;;
37273;SDS011;23161;51.250;5.554;2024-03-25T08:51:18;10.98;;;7.25;;
37273;SDS011;23161;51.250;5.554;2024-03-25T08:52:49;19.52;;;9.77;;
37273;SDS011;23161;51.250;5.554;2024-03-25T08:54:20;17.20;;;7.22;;
37273;SDS011;23161;51.250;5.554;2024-03-25T08:55:52;12.68;;;8.05;;
37273;SDS011;23161;51.250;5.554;2024-03-25T08:57:23;11.35;;;7.30;;
37273;SDS011;23161;51.250;5.554;2024-03-25T08:58:54;9.60;;;7.32;;